Terminal Aerodrome Forecast
Issued by NWS Quad Cities IA IL

Home | Current Version | Previous Version | Text Only | Print | Product List | Glossary Off
Versions: 1 2 3 4 5 6 7 8 9 10 11 12 13 14 15 16 17 18 19

000
FTUS43 KDVN 250500
TAFDBQ
TAF
KDBQ 250525Z 2506/2606 33014KT P6SM SCT250
     FM250700 34007KT P6SM BKN090
     FM251300 06004KT P6SM BKN100
     FM252000 08007KT 1SM -SN OVC014
     FM260100 03012KT 3SM -SN OVC005=

USA.gov is the U.S. government's official web portal to all federal, state and local government web resources and services.